sensor_id;sensor_type;location;lat;lon;timestamp;temperature;humidity
10566;DHT22;5331;48.148;16.326;2023-05-07T00:00:45;13.20;1.00
10566;DHT22;5331;48.148;16.326;2023-05-07T00:03:11;13.20;1.00
10566;DHT22;5331;48.148;16.326;2023-05-07T00:05:39;13.20;1.00
10566;DHT22;5331;48.148;16.326;2023-05-07T00:08:06;13.10;1.00
10566;DHT22;5331;48.148;16.326;2023-05-07T00:10:33;13.10;1.00
10566;DHT22;5331;48.148;16.326;2023-05-07T00:13:00;13.10;1.00
10566;DHT22;5331;48.148;16.326;2023-05-07T00:15:28;13.10;1.00
10566;DHT22;5331;48.148;16.326;2023-05-07T00:17:55;13.10;1.00
10566;DHT22;5331;48.148;16.326;2023-05-07T00:20:24;13.10;1.00
10566;DHT22;5331;48.148;16.326;2023-05-07T00:22:50;13.00;1.00
10566;DHT22;5331;48.148;16.326;2023-05-07T00:25:18;13.00;1.00
10566;DHT22;5331;48.148;16.326;2023-05-07T00:27:45;13.00;1.00
10566;DHT22;5331;48.148;16.326;2023-05-07T00:30:12;13.00;1.00
10566;DHT22;5331;48.148;16.326;2023-05-07T00:32:41;13.00;1.00
10566;DHT22;5331;48.148;16.326;2023-05-07T00:35:08;12.90;1.00
10566;DHT22;5331;48.148;16.326;2023-05-07T00:37:35;13.00;1.00
10566;DHT22;5331;48.148;16.326;2023-05-07T00:40:03;13.00;1.00
10566;DHT22;5331;48.148;16.326;2023-05-07T00:42:32;13.00;1.00
10566;DHT22;5331;48.148;16.326;2023-05-07T00:44:59;13.00;1.00
10566;DHT22;5331;48.148;16.326;2023-05-07T00:47:26;13.00;1.00
10566;DHT22;5331;48.148;16.326;2023-05-07T00:49:54;12.90;1.00
10566;DHT22;5331;48.148;16.326;2023-05-07T00:52:22;12.90;1.00
10566;DHT22;5331;48.148;16.326;2023-05-07T00:54:50;12.90;1.00
10566;DHT22;5331;48.148;16.326;2023-05-07T00:57:17;12.80;1.00
10566;DHT22;5331;48.148;16.326;2023-05-07T00:59:44;12.80;1.00
10566;DHT22;5331;48.148;16.326;2023-05-07T01:02:11;12.80;1.00
10566;DHT22;5331;48.148;16.326;2023-05-07T01:04:38;12.70;1.00
10566;DHT22;5331;48.148;16.326;2023-05-07T01:07:06;12.70;1.00
10566;DHT22;5331;48.148;16.326;2023-05-07T01:09:34;12.60;1.00
10566;DHT22;5331;48.148;16.326;2023-05-07T01:12:01;12.60;1.00
10566;DHT22;5331;48.148;16.326;2023-05-07T01:14:29;12.60;1.00
10566;DHT22;5331;48.148;16.326;2023-05-07T01:16:58;12.60;1.00
10566;DHT22;5331;48.148;16.326;2023-05-07T01:19:25;12.50;1.00
10566;DHT22;5331;48.148;16.326;2023-05-07T01:21:59;12.50;1.00
10566;DHT22;5331;48.148;16.326;2023-05-07T01:24:29;12.50;1.00
10566;DHT22;5331;48.148;16.326;2023-05-07T01:26:56;12.50;1.00
10566;DHT22;5331;48.148;16.326;2023-05-07T01:29:23;12.40;1.00
10566;DHT22;5331;48.148;16.326;2023-05-07T01:31:50;12.40;1.00
10566;DHT22;5331;48.148;16.326;2023-05-07T01:34:18;12.30;1.00
10566;DHT22;5331;48.148;16.326;2023-05-07T01:36:46;12.30;1.00
10566;DHT22;5331;48.148;16.326;2023-05-07T01:39:14;12.30;1.00
10566;DHT22;5331;48.148;16.326;2023-05-07T01:41:44;12.30;1.00
10566;DHT22;5331;48.148;16.326;2023-05-07T01:44:12;12.20;1.00
10566;DHT22;5331;48.148;16.326;2023-05-07T01:46:40;12.20;1.00
10566;DHT22;5331;48.148;16.326;2023-05-07T01:49:07;12.20;1.00
10566;DHT22;5331;48.148;16.326;2023-05-07T01:51:34;12.10;1.00
10566;DHT22;5331;48.148;16.326;2023-05-07T01:54:01;12.10;1.00
10566;DHT22;5331;48.148;16.326;2023-05-07T01:56:28;12.10;1.00
10566;DHT22;5331;48.148;16.326;2023-05-07T01:58:56;12.10;1.00
10566;DHT22;5331;48.148;16.326;2023-05-07T02:01:23;12.10;1.00
10566;DHT22;5331;48.148;16.326;2023-05-07T02:03:50;12.10;1.00
10566;DHT22;5331;48.148;16.326;2023-05-07T02:06:16;12.10;1.00
10566;DHT22;5331;48.148;16.326;2023-05-07T02:08:43;12.10;1.00
10566;DHT22;5331;48.148;16.326;2023-05-07T02:11:10;12.10;1.00
10566;DHT22;5331;48.148;16.326;2023-05-07T02:13:37;12.10;1.00
10566;DHT22;5331;48.148;16.326;2023-05-07T02:16:06;12.00;1.00
10566;DHT22;5331;48.148;16.326;2023-05-07T02:18:32;12.00;1.00
10566;DHT22;5331;48.148;16.326;2023-05-07T02:20:59;12.00;1.00
10566;DHT22;5331;48.148;16.326;2023-05-07T02:23:26;12.00;1.00
10566;DHT22;5331;48.148;16.326;2023-05-07T02:25:53;12.00;1.00
10566;DHT22;5331;48.148;16.326;2023-05-07T02:28:20;12.00;1.00
10566;DHT22;5331;48.148;16.326;2023-05-07T02:30:47;12.00;1.00
10566;DHT22;5331;48.148;16.326;2023-05-07T02:33:15;12.00;1.00
10566;DHT22;5331;48.148;16.326;2023-05-07T02:35:42;12.00;1.00
10566;DHT22;5331;48.148;16.326;2023-05-07T02:38:08;12.10;1.00
10566;DHT22;5331;48.148;16.326;2023-05-07T02:40:36;12.10;1.00
10566;DHT22;5331;48.148;16.326;2023-05-07T02:43:04;12.10;1.00
10566;DHT22;5331;48.148;16.326;2023-05-07T02:45:31;12.10;1.00
10566;DHT22;5331;48.148;16.326;2023-05-07T02:47:58;12.00;1.00
10566;DHT22;5331;48.148;16.326;2023-05-07T02:50:26;12.00;1.00
10566;DHT22;5331;48.148;16.326;2023-05-07T02:52:53;12.00;1.00
10566;DHT22;5331;48.148;16.326;2023-05-07T02:55:21;12.00;1.00
10566;DHT22;5331;48.148;16.326;2023-05-07T02:57:47;11.90;1.00
10566;DHT22;5331;48.148;16.326;2023-05-07T03:00:16;11.90;1.00
10566;DHT22;5331;48.148;16.326;2023-05-07T03:02:43;11.90;1.00
10566;DHT22;5331;48.148;16.326;2023-05-07T03:05:10;11.80;1.00
10566;DHT22;5331;48.148;16.326;2023-05-07T03:07:38;11.80;1.00
10566;DHT22;5331;48.148;16.326;2023-05-07T03:10:07;11.70;1.00
10566;DHT22;5331;48.148;16.326;2023-05-07T03:12:34;11.70;1.00
10566;DHT22;5331;48.148;16.326;2023-05-07T03:15:01;11.80;1.00
10566;DHT22;5331;48.148;16.326;2023-05-07T03:17:28;11.70;1.00
10566;DHT22;5331;48.148;16.326;2023-05-07T03:19:55;11.70;1.00
10566;DHT22;5331;48.148;16.326;2023-05-07T03:22:21;11.70;1.00
10566;DHT22;5331;48.148;16.326;2023-05-07T03:24:50;11.70;1.00
10566;DHT22;5331;48.148;16.326;2023-05-07T03:27:16;11.70;1.00
10566;DHT22;5331;48.148;16.326;2023-05-07T03:29:43;11.70;1.00
10566;DHT22;5331;48.148;16.326;2023-05-07T03:32:10;11.70;1.00
10566;DHT22;5331;48.148;16.326;2023-05-07T03:34:37;11.70;1.00
10566;DHT22;5331;48.148;16.326;2023-05-07T03:37:04;11.80;1.00
10566;DHT22;5331;48.148;16.326;2023-05-07T03:39:31;11.70;1.00
10566;DHT22;5331;48.148;16.326;2023-05-07T03:41:59;11.80;1.00
10566;DHT22;5331;48.148;16.326;2023-05-07T03:44:26;11.70;1.00
10566;DHT22;5331;48.148;16.326;2023-05-07T03:46:53;11.80;1.00
10566;DHT22;5331;48.148;16.326;2023-05-07T03:49:20;11.80;1.00
10566;DHT22;5331;48.148;16.326;2023-05-07T03:51:47;11.80;1.00
10566;DHT22;5331;48.148;16.326;2023-05-07T03:54:14;11.80;1.00
10566;DHT22;5331;48.148;16.326;2023-05-07T03:56:41;11.80;1.00
10566;DHT22;5331;48.148;16.326;2023-05-07T03:59:09;11.80;1.00
10566;DHT22;5331;48.148;16.326;2023-05-07T04:01:36;11.90;1.00
10566;DHT22;5331;48.148;16.326;2023-05-07T04:04:03;11.90;1.00
10566;DHT22;5331;48.148;16.326;2023-05-07T04:06:30;12.00;1.00
10566;DHT22;5331;48.148;16.326;2023-05-07T04:08:57;12.00;1.00
10566;DHT22;5331;48.148;16.326;2023-05-07T04:11:24;12.10;1.00
10566;DHT22;5331;48.148;16.326;2023-05-07T04:13:50;12.10;1.00
10566;DHT22;5331;48.148;16.326;2023-05-07T04:16:19;12.20;1.00
10566;DHT22;5331;48.148;16.326;2023-05-07T04:18:45;12.20;1.00
10566;DHT22;5331;48.148;16.326;2023-05-07T04:21:15;12.30;1.00
10566;DHT22;5331;48.148;16.326;2023-05-07T04:23:43;12.40;1.00
10566;DHT22;5331;48.148;16.326;2023-05-07T04:26:10;12.50;1.00
10566;DHT22;5331;48.148;16.326;2023-05-07T04:28:37;12.60;1.00
10566;DHT22;5331;48.148;16.326;2023-05-07T04:31:04;12.70;1.00
10566;DHT22;5331;48.148;16.326;2023-05-07T04:33:33;12.70;1.00
10566;DHT22;5331;48.148;16.326;2023-05-07T04:36:01;12.80;1.00
10566;DHT22;5331;48.148;16.326;2023-05-07T04:38:29;12.90;1.00
10566;DHT22;5331;48.148;16.326;2023-05-07T04:40:56;13.00;1.00
10566;DHT22;5331;48.148;16.326;2023-05-07T04:43:23;13.00;1.00
10566;DHT22;5331;48.148;16.326;2023-05-07T04:45:50;13.20;1.00
10566;DHT22;5331;48.148;16.326;2023-05-07T04:48:17;13.20;1.00
10566;DHT22;5331;48.148;16.326;2023-05-07T04:50:47;13.30;1.00
10566;DHT22;5331;48.148;16.326;2023-05-07T04:53:14;13.40;1.00
10566;DHT22;5331;48.148;16.326;2023-05-07T04:55:41;13.40;1.00
10566;DHT22;5331;48.148;16.326;2023-05-07T04:58:09;13.50;1.00
10566;DHT22;5331;48.148;16.326;2023-05-07T05:00:36;13.60;1.00
10566;DHT22;5331;48.148;16.326;2023-05-07T05:03:03;13.70;1.00
10566;DHT22;5331;48.148;16.326;2023-05-07T05:05:30;13.80;1.00
10566;DHT22;5331;48.148;16.326;2023-05-07T05:07:58;13.80;1.00
10566;DHT22;5331;48.148;16.326;2023-05-07T05:10:25;13.90;1.00
10566;DHT22;5331;48.148;16.326;2023-05-07T05:12:52;13.90;1.00
10566;DHT22;5331;48.148;16.326;2023-05-07T05:15:19;14.00;1.00
10566;DHT22;5331;48.148;16.326;2023-05-07T05:17:46;14.10;1.00
10566;DHT22;5331;48.148;16.326;2023-05-07T05:20:12;14.00;1.00
10566;DHT22;5331;48.148;16.326;2023-05-07T05:22:40;14.10;1.00
10566;DHT22;5331;48.148;16.326;2023-05-07T05:25:08;14.10;1.00
10566;DHT22;5331;48.148;16.326;2023-05-07T05:27:35;14.20;1.00
10566;DHT22;5331;48.148;16.326;2023-05-07T05:30:03;14.30;1.00
10566;DHT22;5331;48.148;16.326;2023-05-07T05:32:30;14.30;1.00
10566;DHT22;5331;48.148;16.326;2023-05-07T05:34:57;14.40;1.00
10566;DHT22;5331;48.148;16.326;2023-05-07T05:37:25;14.40;1.00
10566;DHT22;5331;48.148;16.326;2023-05-07T05:39:52;14.50;1.00
10566;DHT22;5331;48.148;16.326;2023-05-07T05:42:21;14.50;1.00
10566;DHT22;5331;48.148;16.326;2023-05-07T05:44:48;14.50;1.00
10566;DHT22;5331;48.148;16.326;2023-05-07T05:47:15;14.50;1.00
10566;DHT22;5331;48.148;16.326;2023-05-07T05:49:42;14.50;1.00
10566;DHT22;5331;48.148;16.326;2023-05-07T05:52:11;14.40;1.00
10566;DHT22;5331;48.148;16.326;2023-05-07T05:54:38;14.40;1.00
10566;DHT22;5331;48.148;16.326;2023-05-07T05:57:05;14.40;1.00
10566;DHT22;5331;48.148;16.326;2023-05-07T05:59:33;14.40;1.00
10566;DHT22;5331;48.148;16.326;2023-05-07T06:02:00;14.40;1.00
10566;DHT22;5331;48.148;16.326;2023-05-07T06:04:27;14.30;1.00
10566;DHT22;5331;48.148;16.326;2023-05-07T06:06:54;14.40;1.00
10566;DHT22;5331;48.148;16.326;2023-05-07T06:09:22;14.40;1.00
10566;DHT22;5331;48.148;16.326;2023-05-07T06:11:49;14.40;1.00
10566;DHT22;5331;48.148;16.326;2023-05-07T06:14:15;14.50;1.00
10566;DHT22;5331;48.148;16.326;2023-05-07T06:16:44;14.60;1.00
10566;DHT22;5331;48.148;16.326;2023-05-07T06:19:11;14.60;1.00
10566;DHT22;5331;48.148;16.326;2023-05-07T06:21:39;14.60;1.00
10566;DHT22;5331;48.148;16.326;2023-05-07T06:24:06;14.60;1.00
10566;DHT22;5331;48.148;16.326;2023-05-07T06:26:33;14.60;1.00
10566;DHT22;5331;48.148;16.326;2023-05-07T06:29:00;14.60;1.00
10566;DHT22;5331;48.148;16.326;2023-05-07T06:31:30;14.60;1.00
10566;DHT22;5331;48.148;16.326;2023-05-07T06:33:59;14.70;1.00
10566;DHT22;5331;48.148;16.326;2023-05-07T06:36:27;14.80;1.00
10566;DHT22;5331;48.148;16.326;2023-05-07T06:38:55;15.00;1.00
10566;DHT22;5331;48.148;16.326;2023-05-07T06:41:21;15.10;1.00
10566;DHT22;5331;48.148;16.326;2023-05-07T06:43:48;15.20;1.00
10566;DHT22;5331;48.148;16.326;2023-05-07T06:46:16;15.30;1.00
10566;DHT22;5331;48.148;16.326;2023-05-07T06:48:43;15.40;1.00
10566;DHT22;5331;48.148;16.326;2023-05-07T06:51:11;15.40;1.00
10566;DHT22;5331;48.148;16.326;2023-05-07T06:53:38;15.50;1.00
10566;DHT22;5331;48.148;16.326;2023-05-07T06:56:06;15.60;1.00
10566;DHT22;5331;48.148;16.326;2023-05-07T06:58:33;15.70;1.00
10566;DHT22;5331;48.148;16.326;2023-05-07T07:01:00;15.90;1.00
10566;DHT22;5331;48.148;16.326;2023-05-07T07:03:27;16.10;1.00
10566;DHT22;5331;48.148;16.326;2023-05-07T07:05:53;16.40;1.00
10566;DHT22;5331;48.148;16.326;2023-05-07T07:08:22;16.80;1.00
10566;DHT22;5331;48.148;16.326;2023-05-07T07:10:49;17.10;1.00
10566;DHT22;5331;48.148;16.326;2023-05-07T07:13:16;17.30;1.00
10566;DHT22;5331;48.148;16.326;2023-05-07T07:15:46;17.30;1.00
10566;DHT22;5331;48.148;16.326;2023-05-07T07:18:12;17.40;1.00
10566;DHT22;5331;48.148;16.326;2023-05-07T07:20:39;17.60;1.00
10566;DHT22;5331;48.148;16.326;2023-05-07T07:23:06;17.90;1.00
10566;DHT22;5331;48.148;16.326;2023-05-07T07:25:34;17.90;1.00
10566;DHT22;5331;48.148;16.326;2023-05-07T07:28:01;17.60;1.00
10566;DHT22;5331;48.148;16.326;2023-05-07T07:30:28;17.30;1.00
10566;DHT22;5331;48.148;16.326;2023-05-07T07:32:55;17.20;1.00
10566;DHT22;5331;48.148;16.326;2023-05-07T07:35:27;17.20;1.00
10566;DHT22;5331;48.148;16.326;2023-05-07T07:37:54;17.40;1.00
10566;DHT22;5331;48.148;16.326;2023-05-07T07:40:21;18.00;1.00
10566;DHT22;5331;48.148;16.326;2023-05-07T07:42:49;17.70;1.00
10566;DHT22;5331;48.148;16.326;2023-05-07T07:45:16;17.80;1.00
10566;DHT22;5331;48.148;16.326;2023-05-07T07:47:43;18.00;1.00
10566;DHT22;5331;48.148;16.326;2023-05-07T07:50:10;17.70;1.00
10566;DHT22;5331;48.148;16.326;2023-05-07T07:52:37;17.40;1.00
10566;DHT22;5331;48.148;16.326;2023-05-07T07:55:05;17.50;1.00
10566;DHT22;5331;48.148;16.326;2023-05-07T07:57:33;17.20;1.00
10566;DHT22;5331;48.148;16.326;2023-05-07T08:00:01;17.00;1.00
10566;DHT22;5331;48.148;16.326;2023-05-07T08:02:28;17.00;1.00
10566;DHT22;5331;48.148;16.326;2023-05-07T08:04:55;17.10;1.00
10566;DHT22;5331;48.148;16.326;2023-05-07T08:07:22;17.10;1.00
10566;DHT22;5331;48.148;16.326;2023-05-07T08:09:48;17.10;1.00
10566;DHT22;5331;48.148;16.326;2023-05-07T08:12:15;17.20;1.00
10566;DHT22;5331;48.148;16.326;2023-05-07T08:14:42;16.80;1.00
10566;DHT22;5331;48.148;16.326;2023-05-07T08:17:11;16.70;1.00
10566;DHT22;5331;48.148;16.326;2023-05-07T08:19:38;16.80;1.00
10566;DHT22;5331;48.148;16.326;2023-05-07T08:22:05;17.00;1.00
10566;DHT22;5331;48.148;16.326;2023-05-07T08:24:32;17.10;1.00
10566;DHT22;5331;48.148;16.326;2023-05-07T08:26:59;17.20;1.00
10566;DHT22;5331;48.148;16.326;2023-05-07T08:29:25;17.20;1.00
10566;DHT22;5331;48.148;16.326;2023-05-07T08:31:52;17.10;1.00
10566;DHT22;5331;48.148;16.326;2023-05-07T08:34:21;17.10;1.00
10566;DHT22;5331;48.148;16.326;2023-05-07T08:36:49;17.20;1.00
10566;DHT22;5331;48.148;16.326;2023-05-07T08:39:16;17.30;1.00
10566;DHT22;5331;48.148;16.326;2023-05-07T08:41:44;17.90;1.00
10566;DHT22;5331;48.148;16.326;2023-05-07T08:44:13;18.50;1.00
10566;DHT22;5331;48.148;16.326;2023-05-07T08:46:41;18.70;1.00
10566;DHT22;5331;48.148;16.326;2023-05-07T08:49:09;18.80;1.00
10566;DHT22;5331;48.148;16.326;2023-05-07T08:51:37;19.30;1.00
10566;DHT22;5331;48.148;16.326;2023-05-07T08:54:04;19.40;1.00
10566;DHT22;5331;48.148;16.326;2023-05-07T08:56:32;19.40;1.00
10566;DHT22;5331;48.148;16.326;2023-05-07T08:58:59;19.50;1.00
10566;DHT22;5331;48.148;16.326;2023-05-07T09:01:26;19.60;1.00
10566;DHT22;5331;48.148;16.326;2023-05-07T09:03:53;19.50;1.00
10566;DHT22;5331;48.148;16.326;2023-05-07T09:06:20;19.50;1.00
10566;DHT22;5331;48.148;16.326;2023-05-07T09:08:52;19.40;1.00
10566;DHT22;5331;48.148;16.326;2023-05-07T09:11:20;19.50;1.00
10566;DHT22;5331;48.148;16.326;2023-05-07T09:13:48;19.80;1.00
10566;DHT22;5331;48.148;16.326;2023-05-07T09:16:15;20.10;1.00
10566;DHT22;5331;48.148;16.326;2023-05-07T09:18:43;20.20;1.00
10566;DHT22;5331;48.148;16.326;2023-05-07T09:21:10;20.40;1.00
10566;DHT22;5331;48.148;16.326;2023-05-07T09:23:38;20.60;1.00
10566;DHT22;5331;48.148;16.326;2023-05-07T09:26:06;20.50;1.00
10566;DHT22;5331;48.148;16.326;2023-05-07T09:28:39;20.50;1.00
10566;DHT22;5331;48.148;16.326;2023-05-07T09:31:06;20.70;1.00
10566;DHT22;5331;48.148;16.326;2023-05-07T09:33:33;20.90;1.00
10566;DHT22;5331;48.148;16.326;2023-05-07T09:36:03;20.50;1.00
10566;DHT22;5331;48.148;16.326;2023-05-07T09:38:30;20.80;1.00
10566;DHT22;5331;48.148;16.326;2023-05-07T09:41:06;21.30;1.00
10566;DHT22;5331;48.148;16.326;2023-05-07T09:43:34;21.10;1.00
10566;DHT22;5331;48.148;16.326;2023-05-07T09:46:07;20.70;1.00
10566;DHT22;5331;48.148;16.326;2023-05-07T09:48:37;20.80;1.00
10566;DHT22;5331;48.148;16.326;2023-05-07T09:51:11;21.00;1.00
10566;DHT22;5331;48.148;16.326;2023-05-07T09:53:40;21.30;1.00
10566;DHT22;5331;48.148;16.326;2023-05-07T09:56:08;21.20;1.00
10566;DHT22;5331;48.148;16.326;2023-05-07T09:58:39;21.30;1.00
10566;DHT22;5331;48.148;16.326;2023-05-07T10:01:11;21.50;1.00
10566;DHT22;5331;48.148;16.326;2023-05-07T10:03:40;21.80;1.00
10566;DHT22;5331;48.148;16.326;2023-05-07T10:06:09;21.90;1.00
10566;DHT22;5331;48.148;16.326;2023-05-07T10:08:36;21.90;1.00
10566;DHT22;5331;48.148;16.326;2023-05-07T10:11:04;21.90;1.00
10566;DHT22;5331;48.148;16.326;2023-05-07T10:13:32;21.60;1.00
10566;DHT22;5331;48.148;16.326;2023-05-07T10:16:03;21.60;1.00
10566;DHT22;5331;48.148;16.326;2023-05-07T10:18:30;21.90;1.00
10566;DHT22;5331;48.148;16.326;2023-05-07T10:21:02;22.20;1.00
10566;DHT22;5331;48.148;16.326;2023-05-07T10:23:32;22.40;1.00
10566;DHT22;5331;48.148;16.326;2023-05-07T10:26:02;22.40;1.00
10566;DHT22;5331;48.148;16.326;2023-05-07T10:28:33;21.20;1.00
10566;DHT22;5331;48.148;16.326;2023-05-07T10:31:11;20.90;1.00
10566;DHT22;5331;48.148;16.326;2023-05-07T10:33:42;20.90;1.00
10566;DHT22;5331;48.148;16.326;2023-05-07T10:36:11;21.30;1.00
10566;DHT22;5331;48.148;16.326;2023-05-07T10:38:38;22.00;1.00
10566;DHT22;5331;48.148;16.326;2023-05-07T10:41:06;22.40;1.00
10566;DHT22;5331;48.148;16.326;2023-05-07T10:43:43;22.00;1.00
10566;DHT22;5331;48.148;16.326;2023-05-07T10:46:15;21.40;1.00
10566;DHT22;5331;48.148;16.326;2023-05-07T10:49:07;20.90;1.00
10566;DHT22;5331;48.148;16.326;2023-05-07T10:51:37;21.00;1.00
10566;DHT22;5331;48.148;16.326;2023-05-07T10:54:23;20.90;1.00
10566;DHT22;5331;48.148;16.326;2023-05-07T10:56:53;20.90;1.00
10566;DHT22;5331;48.148;16.326;2023-05-07T10:59:34;21.40;1.00
10566;DHT22;5331;48.148;16.326;2023-05-07T11:02:08;21.70;1.00
10566;DHT22;5331;48.148;16.326;2023-05-07T11:04:37;21.70;1.00
10566;DHT22;5331;48.148;16.326;2023-05-07T11:07:28;21.40;1.00
10566;DHT22;5331;48.148;16.326;2023-05-07T11:10:03;21.20;1.00
10566;DHT22;5331;48.148;16.326;2023-05-07T11:12:50;21.20;1.00
10566;DHT22;5331;48.148;16.326;2023-05-07T11:15:41;21.00;1.00
10566;DHT22;5331;48.148;16.326;2023-05-07T11:18:14;21.20;1.00
10566;DHT22;5331;48.148;16.326;2023-05-07T11:20:55;21.10;1.00
10566;DHT22;5331;48.148;16.326;2023-05-07T11:23:56;20.90;1.00
10566;DHT22;5331;48.148;16.326;2023-05-07T11:26:24;21.40;1.00
10566;DHT22;5331;48.148;16.326;2023-05-07T11:28:52;21.10;1.00
10566;DHT22;5331;48.148;16.326;2023-05-07T11:31:25;21.40;1.00
10566;DHT22;5331;48.148;16.326;2023-05-07T11:33:55;21.70;1.00
10566;DHT22;5331;48.148;16.326;2023-05-07T11:36:23;21.70;1.00
10566;DHT22;5331;48.148;16.326;2023-05-07T11:38:50;21.30;1.00
10566;DHT22;5331;48.148;16.326;2023-05-07T11:41:17;21.50;1.00
10566;DHT22;5331;48.148;16.326;2023-05-07T11:43:54;21.40;1.00
10566;DHT22;5331;48.148;16.326;2023-05-07T11:46:22;21.60;1.00
10566;DHT22;5331;48.148;16.326;2023-05-07T11:48:49;21.60;1.00
10566;DHT22;5331;48.148;16.326;2023-05-07T11:51:21;22.00;1.00
10566;DHT22;5331;48.148;16.326;2023-05-07T11:53:48;21.20;1.00
10566;DHT22;5331;48.148;16.326;2023-05-07T11:56:16;20.90;1.00
10566;DHT22;5331;48.148;16.326;2023-05-07T11:58:45;20.30;1.00
10566;DHT22;5331;48.148;16.326;2023-05-07T12:01:13;19.80;1.00
10566;DHT22;5331;48.148;16.326;2023-05-07T12:03:42;19.60;1.00
10566;DHT22;5331;48.148;16.326;2023-05-07T12:06:09;20.10;1.00
10566;DHT22;5331;48.148;16.326;2023-05-07T12:08:43;20.60;1.00
10566;DHT22;5331;48.148;16.326;2023-05-07T12:11:15;20.80;1.00
10566;DHT22;5331;48.148;16.326;2023-05-07T12:13:43;21.00;1.00
10566;DHT22;5331;48.148;16.326;2023-05-07T12:16:11;21.00;1.00
10566;DHT22;5331;48.148;16.326;2023-05-07T12:18:38;21.30;1.00
10566;DHT22;5331;48.148;16.326;2023-05-07T12:21:06;21.60;1.00
10566;DHT22;5331;48.148;16.326;2023-05-07T12:23:34;22.00;1.00
10566;DHT22;5331;48.148;16.326;2023-05-07T12:26:03;22.30;1.00
10566;DHT22;5331;48.148;16.326;2023-05-07T12:28:32;22.20;1.00
10566;DHT22;5331;48.148;16.326;2023-05-07T12:31:02;21.60;1.00
10566;DHT22;5331;48.148;16.326;2023-05-07T12:33:29;21.60;1.00
10566;DHT22;5331;48.148;16.326;2023-05-07T12:35:58;21.60;1.00
10566;DHT22;5331;48.148;16.326;2023-05-07T12:38:34;21.70;1.00
10566;DHT22;5331;48.148;16.326;2023-05-07T12:41:03;21.00;1.00
10566;DHT22;5331;48.148;16.326;2023-05-07T12:43:31;20.40;1.00
10566;DHT22;5331;48.148;16.326;2023-05-07T12:46:00;20.50;1.00
10566;DHT22;5331;48.148;16.326;2023-05-07T12:48:28;20.70;1.00
10566;DHT22;5331;48.148;16.326;2023-05-07T12:50:55;20.70;1.00
10566;DHT22;5331;48.148;16.326;2023-05-07T12:53:24;20.90;1.00
10566;DHT22;5331;48.148;16.326;2023-05-07T12:55:53;20.80;1.00
10566;DHT22;5331;48.148;16.326;2023-05-07T12:58:24;20.70;1.00
10566;DHT22;5331;48.148;16.326;2023-05-07T13:00:52;20.30;1.00
10566;DHT22;5331;48.148;16.326;2023-05-07T13:03:23;20.20;1.00
10566;DHT22;5331;48.148;16.326;2023-05-07T13:05:50;20.40;1.00
10566;DHT22;5331;48.148;16.326;2023-05-07T13:08:28;20.70;1.00
10566;DHT22;5331;48.148;16.326;2023-05-07T13:10:56;20.80;1.00
10566;DHT22;5331;48.148;16.326;2023-05-07T13:13:24;20.50;1.00
10566;DHT22;5331;48.148;16.326;2023-05-07T13:15:51;20.40;1.00
10566;DHT22;5331;48.148;16.326;2023-05-07T13:18:18;20.40;1.00
10566;DHT22;5331;48.148;16.326;2023-05-07T13:20:45;21.00;1.00
10566;DHT22;5331;48.148;16.326;2023-05-07T13:23:12;20.90;1.00
10566;DHT22;5331;48.148;16.326;2023-05-07T13:25:38;21.00;1.00
10566;DHT22;5331;48.148;16.326;2023-05-07T13:28:05;20.80;1.00
10566;DHT22;5331;48.148;16.326;2023-05-07T13:30:34;20.60;1.00
10566;DHT22;5331;48.148;16.326;2023-05-07T13:33:01;20.20;1.00
10566;DHT22;5331;48.148;16.326;2023-05-07T13:35:28;19.90;1.00
10566;DHT22;5331;48.148;16.326;2023-05-07T13:37:55;19.80;1.00
10566;DHT22;5331;48.148;16.326;2023-05-07T13:40:22;19.80;1.00
10566;DHT22;5331;48.148;16.326;2023-05-07T13:42:49;19.80;1.00
10566;DHT22;5331;48.148;16.326;2023-05-07T13:45:17;19.70;1.00
10566;DHT22;5331;48.148;16.326;2023-05-07T13:47:46;19.70;1.00
10566;DHT22;5331;48.148;16.326;2023-05-07T13:50:15;19.60;1.00
10566;DHT22;5331;48.148;16.326;2023-05-07T13:52:43;19.50;1.00
10566;DHT22;5331;48.148;16.326;2023-05-07T13:55:13;19.60;1.00
10566;DHT22;5331;48.148;16.326;2023-05-07T13:57:40;19.70;1.00
10566;DHT22;5331;48.148;16.326;2023-05-07T14:00:08;19.50;1.00
10566;DHT22;5331;48.148;16.326;2023-05-07T14:02:35;19.60;1.00
10566;DHT22;5331;48.148;16.326;2023-05-07T14:05:04;19.50;1.00
10566;DHT22;5331;48.148;16.326;2023-05-07T14:07:31;19.50;1.00
10566;DHT22;5331;48.148;16.326;2023-05-07T14:09:58;19.60;1.00
10566;DHT22;5331;48.148;16.326;2023-05-07T14:12:25;19.50;1.00
10566;DHT22;5331;48.148;16.326;2023-05-07T14:14:51;19.60;1.00
10566;DHT22;5331;48.148;16.326;2023-05-07T14:17:18;19.70;1.00
10566;DHT22;5331;48.148;16.326;2023-05-07T14:19:45;19.70;1.00
10566;DHT22;5331;48.148;16.326;2023-05-07T14:22:14;19.60;1.00
10566;DHT22;5331;48.148;16.326;2023-05-07T14:24:41;19.60;1.00
10566;DHT22;5331;48.148;16.326;2023-05-07T14:27:08;19.50;1.00
10566;DHT22;5331;48.148;16.326;2023-05-07T14:29:35;19.40;1.00
10566;DHT22;5331;48.148;16.326;2023-05-07T14:32:02;19.50;1.00
10566;DHT22;5331;48.148;16.326;2023-05-07T14:34:31;19.60;1.00
10566;DHT22;5331;48.148;16.326;2023-05-07T14:36:59;19.70;1.00
10566;DHT22;5331;48.148;16.326;2023-05-07T14:39:27;19.50;1.00
10566;DHT22;5331;48.148;16.326;2023-05-07T14:41:55;19.50;1.00
10566;DHT22;5331;48.148;16.326;2023-05-07T14:44:22;19.40;1.00
10566;DHT22;5331;48.148;16.326;2023-05-07T14:46:48;19.30;1.00
10566;DHT22;5331;48.148;16.326;2023-05-07T14:49:16;19.20;1.00
10566;DHT22;5331;48.148;16.326;2023-05-07T14:51:43;19.30;1.00
10566;DHT22;5331;48.148;16.326;2023-05-07T14:54:11;19.30;1.00
10566;DHT22;5331;48.148;16.326;2023-05-07T14:56:40;19.20;1.00
10566;DHT22;5331;48.148;16.326;2023-05-07T14:59:07;19.00;1.00
10566;DHT22;5331;48.148;16.326;2023-05-07T15:01:34;18.80;1.00
10566;DHT22;5331;48.148;16.326;2023-05-07T15:04:02;18.80;1.00
10566;DHT22;5331;48.148;16.326;2023-05-07T15:06:29;18.70;1.00
10566;DHT22;5331;48.148;16.326;2023-05-07T15:08:56;18.50;1.00
10566;DHT22;5331;48.148;16.326;2023-05-07T15:11:23;18.40;1.00
10566;DHT22;5331;48.148;16.326;2023-05-07T15:13:52;18.30;1.00
10566;DHT22;5331;48.148;16.326;2023-05-07T15:16:19;18.30;1.00
10566;DHT22;5331;48.148;16.326;2023-05-07T15:18:46;18.40;1.00
10566;DHT22;5331;48.148;16.326;2023-05-07T15:21:13;18.40;1.00
10566;DHT22;5331;48.148;16.326;2023-05-07T15:23:40;18.40;1.00
10566;DHT22;5331;48.148;16.326;2023-05-07T15:26:07;18.40;1.00
10566;DHT22;5331;48.148;16.326;2023-05-07T15:28:34;18.40;1.00
10566;DHT22;5331;48.148;16.326;2023-05-07T15:31:03;18.30;1.00
10566;DHT22;5331;48.148;16.326;2023-05-07T15:33:30;18.20;1.00
10566;DHT22;5331;48.148;16.326;2023-05-07T15:36:00;18.10;1.00
10566;DHT22;5331;48.148;16.326;2023-05-07T15:38:28;18.10;1.00
10566;DHT22;5331;48.148;16.326;2023-05-07T15:40:55;18.00;1.00
10566;DHT22;5331;48.148;16.326;2023-05-07T15:43:22;17.90;1.00
10566;DHT22;5331;48.148;16.326;2023-05-07T15:45:50;17.80;1.00
10566;DHT22;5331;48.148;16.326;2023-05-07T15:48:20;17.80;1.00
10566;DHT22;5331;48.148;16.326;2023-05-07T15:50:47;17.70;1.00